Time;durP1;ratioP1;P1;durP2;ratioP2;P2;SDS_P1;SDS_P2;PMS_P1;PMS_P2;Temp;Humidity;BMP_temperature;BMP_pressure;BME280_temperature;BME280_humidity;BME280_pressure;Samples;Min_cycle;Max_cycle;Signal;HPM_P1;HPM_P2
2022/11/23 00:02:21;;;;;;;1.20;0.70;;;4.30;99.90;;;;;;5087998;28;20286;-82
2022/11/23 00:04:47;;;;;;;1.90;1.05;;;4.30;99.90;;;;;;5081017;28;20202;-83
2022/11/23 00:07:14;;;;;;;1.05;0.95;;;4.40;99.90;;;;;;5087566;28;20202;-82
2022/11/23 00:09:43;;;;;;;0.68;0.68;;;4.30;99.90;;;;;;5087819;28;20248;-82
2022/11/23 00:12:09;;;;;;;0.85;0.85;;;4.30;99.90;;;;;;5084626;28;20197;-82
2022/11/23 00:14:36;;;;;;;0.93;0.65;;;4.20;99.90;;;;;;5072067;28;20306;-82
2022/11/23 00:17:03;;;;;;;1.77;0.98;;;4.20;99.90;;;;;;5088232;28;20225;-82
2022/11/23 00:19:30;;;;;;;1.25;0.82;;;4.30;99.90;;;;;;5075126;28;20280;-84
2022/11/23 00:21:58;;;;;;;1.20;1.10;;;4.30;99.90;;;;;;5083624;28;20952;-82
2022/11/23 00:24:25;;;;;;;0.75;0.68;;;4.20;99.90;;;;;;5082463;28;20191;-82
2022/11/23 00:26:53;;;;;;;0.30;0.30;;;4.30;99.90;;;;;;5068814;28;20245;-82
2022/11/23 00:29:20;;;;;;;4.63;1.50;;;4.30;99.90;;;;;;5083978;28;20202;-82
2022/11/23 00:31:47;;;;;;;0.82;0.80;;;4.20;99.90;;;;;;5077715;28;20195;-83
2022/11/23 00:34:13;;;;;;;0.90;0.90;;;4.20;99.90;;;;;;5072829;28;20936;-82
2022/11/23 00:36:40;;;;;;;0.77;0.63;;;4.10;99.90;;;;;;5069682;28;20205;-82
2022/11/23 00:39:07;;;;;;;0.70;0.70;;;4.10;99.90;;;;;;5069963;28;20215;-82
2022/11/23 00:41:34;;;;;;;7.22;0.80;;;4.00;99.90;;;;;;5080790;28;20741;-85
2022/11/23 00:44:02;;;;;;;2.13;1.73;;;4.10;99.90;;;;;;5083968;28;20654;-82
2022/11/23 00:46:28;;;;;;;0.45;0.45;;;4.10;99.90;;;;;;5068438;28;20203;-83
2022/11/23 00:48:56;;;;;;;1.25;0.93;;;4.10;99.90;;;;;;5084821;28;20195;-82
2022/11/23 00:51:25;;;;;;;0.43;0.43;;;4.20;99.90;;;;;;5087171;28;20203;-82
2022/11/23 00:53:52;;;;;;;0.47;0.47;;;4.20;99.90;;;;;;5077163;28;20686;-82
2022/11/23 00:56:21;;;;;;;0.55;0.50;;;4.20;99.90;;;;;;5068473;28;20195;-82
2022/11/23 00:58:49;;;;;;;0.43;0.43;;;4.30;99.90;;;;;;5076565;28;20291;-82
2022/11/23 01:01:18;;;;;;;1.30;1.00;;;4.60;99.90;;;;;;5076390;28;20195;-82
2022/11/23 01:03:47;;;;;;;0.30;0.20;;;4.10;99.90;;;;;;5077904;28;20201;-82
2022/11/23 01:06:16;;;;;;;0.45;0.45;;;4.10;99.90;;;;;;5074818;28;20298;-82
2022/11/23 01:08:43;;;;;;;0.70;0.70;;;4.20;99.90;;;;;;5086290;28;20281;-82
2022/11/23 01:11:11;;;;;;;1.73;1.05;;;4.00;99.90;;;;;;5079375;28;20203;-82
2022/11/23 01:13:40;;;;;;;0.63;0.57;;;4.10;99.90;;;;;;5080177;28;20666;-82
2022/11/23 01:16:12;;;;;;;0.77;0.52;;;4.10;99.90;;;;;;5087846;28;20192;-83
2022/11/23 01:18:41;;;;;;;0.63;0.63;;;4.10;99.90;;;;;;5072251;28;20322;-82
2022/11/23 01:21:08;;;;;;;0.60;0.60;;;4.00;99.90;;;;;;5071475;28;20215;-82
2022/11/23 01:23:35;;;;;;;0.43;0.43;;;4.00;99.90;;;;;;5080872;28;20205;-82
2022/11/23 01:26:04;;;;;;;1.58;1.40;;;4.10;99.90;;;;;;5080223;28;20286;-83
2022/11/23 01:28:31;;;;;;;0.57;0.57;;;4.10;99.90;;;;;;5068060;28;20290;-82
2022/11/23 01:31:04;;;;;;;0.38;0.35;;;4.20;99.90;;;;;;5073846;28;20282;-81
2022/11/23 01:33:31;;;;;;;0.85;0.68;;;4.20;99.90;;;;;;5072819;28;20195;-83
2022/11/23 01:35:59;;;;;;;1.27;0.98;;;4.20;99.90;;;;;;5075518;28;20554;-82
2022/11/23 01:38:26;;;;;;;0.90;0.50;;;4.20;99.90;;;;;;5088252;28;20223;-82
2022/11/23 01:40:53;;;;;;;0.32;0.30;;;4.10;99.90;;;;;;5083321;28;20206;-82
2022/11/23 01:43:20;;;;;;;1.05;0.70;;;4.20;99.90;;;;;;5083504;28;20242;-82
2022/11/23 01:45:56;;;;;;;6.53;0.85;;;4.20;99.90;;;;;;5086179;28;20277;-82
2022/11/23 01:48:27;;;;;;;0.68;0.68;;;4.20;99.90;;;;;;5068868;28;20203;-83
2022/11/23 01:50:58;;;;;;;0.43;0.43;;;4.20;99.90;;;;;;5075484;28;20672;-83
2022/11/23 01:53:27;;;;;;;0.70;0.70;;;4.10;99.90;;;;;;5072443;28;20191;-82
2022/11/23 01:55:59;;;;;;;2.88;0.70;;;4.10;99.90;;;;;;5087740;28;20301;-82
2022/11/23 01:58:28;;;;;;;0.70;0.70;;;4.10;99.90;;;;;;5068594;28;20214;-82
2022/11/23 02:00:55;;;;;;;0.80;0.77;;;4.10;99.90;;;;;;5086388;28;20236;-82
2022/11/23 02:03:22;;;;;;;1.08;0.98;;;4.10;99.90;;;;;;5076189;28;20291;-82
2022/11/23 02:05:57;;;;;;;0.70;0.60;;;4.10;99.90;;;;;;5082888;28;20203;-82
2022/11/23 02:08:27;;;;;;;0.70;0.60;;;3.90;99.90;;;;;;5068588;28;20205;-82
2022/11/23 02:10:55;;;;;;;0.40;0.28;;;4.00;99.90;;;;;;5068164;28;20199;-82
2022/11/23 02:13:23;;;;;;;0.68;0.57;;;4.20;99.90;;;;;;5083872;28;20200;-82
2022/11/23 02:15:51;;;;;;;0.40;0.30;;;4.10;99.90;;;;;;5072557;28;20199;-82
2022/11/23 02:18:21;;;;;;;0.50;0.40;;;4.00;99.90;;;;;;5083502;28;20233;-83
2022/11/23 02:20:49;;;;;;;2.58;0.50;;;4.00;99.90;;;;;;5073358;28;20278;-82
2022/11/23 02:23:28;;;;;;;0.40;0.22;;;3.50;99.90;;;;;;5081111;28;20260;-82
2022/11/23 02:26:00;;;;;;;0.88;0.50;;;3.80;99.90;;;;;;5072635;28;20230;-82
2022/11/23 02:28:30;;;;;;;1.02;0.80;;;3.70;99.90;;;;;;5071084;28;20199;-82
2022/11/23 02:30:57;;;;;;;0.70;0.57;;;3.80;99.90;;;;;;5071948;28;20211;-81
2022/11/23 02:33:24;;;;;;;0.80;0.75;;;3.60;99.90;;;;;;5075753;28;20240;-82
2022/11/23 02:35:53;;;;;;;0.47;0.30;;;3.70;99.90;;;;;;5081060;28;20281;-82
2022/11/23 02:38:22;;;;;;;1.77;1.67;;;3.80;99.90;;;;;;5089339;28;20233;-82
2022/11/23 02:40:49;;;;;;;0.73;0.65;;;3.80;99.90;;;;;;5073794;28;20318;-82
2022/11/23 02:43:17;;;;;;;0.57;0.57;;;3.80;99.90;;;;;;5071515;28;20274;-82
2022/11/23 02:45:50;;;;;;;0.40;0.40;;;3.90;99.90;;;;;;5088387;28;20273;-82
2022/11/23 02:48:17;;;;;;;1.02;0.80;;;3.80;99.90;;;;;;5088065;28;20195;-82
2022/11/23 02:50:45;;;;;;;0.30;0.25;;;3.80;99.90;;;;;;5088793;28;20256;-82
2022/11/23 02:53:13;;;;;;;0.47;0.40;;;3.80;99.90;;;;;;5076899;28;20201;-82
2022/11/23 02:55:40;;;;;;;1.75;1.20;;;3.60;99.90;;;;;;5087585;28;20643;-83
2022/11/23 02:58:07;;;;;;;1.65;1.55;;;3.70;99.90;;;;;;5070321;28;20276;-82
2022/11/23 03:00:36;;;;;;;0.50;0.32;;;3.70;99.90;;;;;;5084719;28;20195;-83
2022/11/23 03:03:04;;;;;;;0.40;0.38;;;3.70;99.90;;;;;;5086653;28;20215;-83
2022/11/23 03:05:30;;;;;;;0.35;0.35;;;3.50;99.90;;;;;;5071759;28;20756;-82
2022/11/23 03:07:58;;;;;;;0.50;0.30;;;3.40;99.90;;;;;;5088779;28;20226;-82
2022/11/23 03:10:25;;;;;;;0.77;0.65;;;3.60;99.90;;;;;;5075130;28;20187;-82
2022/11/23 03:12:55;;;;;;;1.40;0.65;;;3.40;99.90;;;;;;5077595;28;20835;-82
2022/11/23 03:15:22;;;;;;;0.30;0.20;;;3.50;99.90;;;;;;5070300;28;20577;-82
2022/11/23 03:17:51;;;;;;;1.95;1.85;;;3.50;99.90;;;;;;5083379;28;20739;-82
2022/11/23 03:20:18;;;;;;;1.48;0.63;;;3.50;99.90;;;;;;5072757;28;20204;-82
2022/11/23 03:22:45;;;;;;;0.30;0.30;;;3.40;99.90;;;;;;5078420;28;20195;-82
2022/11/23 03:25:13;;;;;;;0.75;0.75;;;3.50;99.90;;;;;;5079414;28;20217;-81
2022/11/23 03:27:39;;;;;;;1.40;0.35;;;3.40;99.90;;;;;;5088555;28;20685;-82
2022/11/23 03:30:08;;;;;;;0.60;0.60;;;3.30;99.90;;;;;;5071953;28;20230;-83
2022/11/23 03:32:35;;;;;;;0.47;0.47;;;3.30;99.90;;;;;;5090235;28;20666;-83
2022/11/23 03:35:06;;;;;;;0.40;0.40;;;3.20;99.90;;;;;;5082844;28;20728;-82
2022/11/23 03:37:34;;;;;;;0.40;0.40;;;3.20;99.90;;;;;;5089224;28;20260;-84
2022/11/23 03:40:01;;;;;;;1.92;0.85;;;3.10;99.90;;;;;;5087618;28;20198;-82
2022/11/23 03:42:28;;;;;;;0.93;0.93;;;3.20;99.90;;;;;;5072374;28;20192;-82
2022/11/23 03:44:55;;;;;;;0.88;0.47;;;3.30;99.90;;;;;;5069675;28;20588;-82
2022/11/23 03:47:22;;;;;;;0.57;0.50;;;5.40;99.90;;;;;;5077762;28;20198;-82
2022/11/23 03:49:49;;;;;;;0.40;0.40;;;3.50;99.90;;;;;;5089522;28;20746;-83
2022/11/23 03:52:18;;;;;;;0.30;0.30;;;3.60;99.90;;;;;;5088986;28;20605;-82
2022/11/23 03:54:45;;;;;;;6.72;0.40;;;3.70;99.90;;;;;;5082529;28;20191;-82
2022/11/23 03:57:12;;;;;;;0.55;0.55;;;3.70;99.90;;;;;;5070271;28;20257;-82
2022/11/23 03:59:39;;;;;;;0.60;0.60;;;3.70;99.90;;;;;;5074607;28;20215;-82
2022/11/23 04:02:07;;;;;;;0.40;0.40;;;3.80;99.90;;;;;;5079959;28;20638;-82
2022/11/23 04:04:34;;;;;;;2.45;0.93;;;3.90;99.90;;;;;;5074322;28;20203;-83
2022/11/23 04:07:01;;;;;;;0.50;0.50;;;3.90;99.90;;;;;;5081790;28;20186;-82
2022/11/23 04:09:29;;;;;;;0.35;0.35;;;4.10;99.90;;;;;;5087699;28;20282;-82
2022/11/23 04:11:56;;;;;;;0.40;0.30;;;4.00;99.90;;;;;;5076456;28;20200;-82
2022/11/23 04:14:22;;;;;;;1.75;0.40;;;4.00;99.90;;;;;;5070272;28;20203;-82
2022/11/23 04:16:49;;;;;;;1.02;0.60;;;4.10;99.90;;;;;;5073781;28;20197;-82
2022/11/23 04:19:16;;;;;;;0.50;0.50;;;4.00;99.90;;;;;;5076952;28;20219;-82
2022/11/23 04:21:43;;;;;;;1.40;0.50;;;4.00;99.90;;;;;;5076136;28;20220;-81
2022/11/23 04:24:10;;;;;;;0.30;0.25;;;3.90;99.90;;;;;;5086970;28;20208;-82
2022/11/23 04:26:39;;;;;;;0.30;0.30;;;3.80;99.90;;;;;;5079345;28;20187;-82
2022/11/23 04:29:06;;;;;;;1.15;0.30;;;3.90;99.90;;;;;;5088712;28;20197;-82
2022/11/23 04:31:33;;;;;;;0.40;0.40;;;3.90;99.90;;;;;;5086968;28;20190;-81
2022/11/23 04:33:59;;;;;;;1.58;0.95;;;3.80;99.90;;;;;;5083039;28;20200;-82
2022/11/23 04:36:26;;;;;;;0.88;0.65;;;3.90;99.90;;;;;;5069909;28;20214;-82
2022/11/23 04:38:53;;;;;;;0.40;0.40;;;3.90;99.90;;;;;;5081497;28;20222;-82
2022/11/23 04:41:20;;;;;;;4.03;1.17;;;3.80;99.90;;;;;;5075310;28;20202;-82
2022/11/23 04:43:49;;;;;;;0.52;0.50;;;3.70;99.90;;;;;;5075727;28;20255;-82
2022/11/23 04:46:16;;;;;;;0.60;0.60;;;3.70;99.90;;;;;;5087697;28;20665;-82
2022/11/23 04:48:42;;;;;;;0.93;0.30;;;3.80;99.90;;;;;;5087806;28;20283;-82
2022/11/23 04:51:09;;;;;;;0.40;0.40;;;3.90;99.90;;;;;;5079974;28;20187;-81
2022/11/23 04:53:36;;;;;;;0.40;0.35;;;3.80;99.90;;;;;;5068703;28;20199;-82
2022/11/23 04:56:03;;;;;;;0.50;0.47;;;5.30;99.90;;;;;;5083914;28;20191;-82
2022/11/23 04:58:30;;;;;;;1.50;0.77;;;4.00;99.90;;;;;;5076518;28;20781;-83
2022/11/23 05:00:59;;;;;;;0.90;0.57;;;3.50;99.90;;;;;;5067623;28;20290;-81
2022/11/23 05:03:26;;;;;;;0.57;0.47;;;3.90;99.90;;;;;;5074819;28;20206;-82
2022/11/23 05:05:53;;;;;;;0.93;0.50;;;4.10;99.90;;;;;;5084613;28;20199;-82
2022/11/23 05:08:20;;;;;;;1.13;1.02;;;;;;;;;;5078767;28;21358;-82
2022/11/23 05:10:47;;;;;;;0.60;0.60;;;4.00;99.90;;;;;;5075124;28;20671;-82
2022/11/23 05:13:14;;;;;;;1.08;1.05;;;4.10;99.90;;;;;;5086331;28;20322;-82
2022/11/23 05:15:41;;;;;;;0.50;0.35;;;4.10;99.90;;;;;;5084299;28;20215;-81
2022/11/23 05:18:10;;;;;;;0.80;0.50;;;4.20;99.90;;;;;;5085408;28;20298;-83
2022/11/23 05:20:37;;;;;;;0.30;0.25;;;4.20;99.90;;;;;;5080871;28;20199;-82
2022/11/23 05:23:04;;;;;;;1.75;1.65;;;4.20;99.90;;;;;;5084236;28;20634;-82
2022/11/23 05:25:31;;;;;;;0.40;0.40;;;4.30;99.90;;;;;;5078487;28;20298;-82
2022/11/23 05:27:58;;;;;;;1.90;1.80;;;4.10;99.90;;;;;;5085097;28;20297;-82
2022/11/23 05:30:25;;;;;;;0.30;0.30;;;4.20;99.90;;;;;;5079335;28;20199;-82
2022/11/23 05:32:52;;;;;;;0.63;0.63;;;4.30;99.90;;;;;;5067925;28;20203;-81
2022/11/23 05:35:20;;;;;;;0.30;0.30;;;4.10;99.90;;;;;;5085444;28;20201;-81
2022/11/23 05:37:47;;;;;;;1.05;0.60;;;4.10;99.90;;;;;;5077270;28;20191;-81
2022/11/23 05:40:14;;;;;;;0.32;0.32;;;4.10;99.90;;;;;;5079249;28;20227;-82
2022/11/23 05:42:41;;;;;;;0.30;0.30;;;4.10;99.90;;;;;;5078791;28;20203;-81
2022/11/23 05:45:08;;;;;;;0.40;0.32;;;4.10;99.90;;;;;;5075930;28;20730;-81
2022/11/23 05:47:35;;;;;;;2.47;0.47;;;4.20;99.90;;;;;;5078013;28;20194;-82
2022/11/23 05:50:02;;;;;;;0.38;0.38;;;4.20;99.90;;;;;;5079223;28;20186;-80
2022/11/23 05:52:30;;;;;;;0.77;0.32;;;4.30;99.90;;;;;;5072618;28;20218;-82
2022/11/23 05:54:57;;;;;;;0.40;0.40;;;4.40;99.90;;;;;;5084883;28;20197;-82
2022/11/23 05:57:24;;;;;;;0.60;0.60;;;4.40;99.90;;;;;;5069389;28;20727;-81
2022/11/23 05:59:51;;;;;;;0.40;0.40;;;4.50;99.90;;;;;;5069639;28;20226;-81
2022/11/23 06:02:17;;;;;;;0.70;0.57;;;4.40;99.90;;;;;;5078554;28;20212;-81
2022/11/23 06:04:44;;;;;;;0.68;0.68;;;4.30;99.90;;;;;;5085576;28;20215;-82
2022/11/23 06:07:11;;;;;;;0.95;0.60;;;4.40;99.90;;;;;;5085731;28;20198;-81
2022/11/23 06:09:39;;;;;;;2.05;0.73;;;4.50;99.90;;;;;;5073052;28;20195;-82
2022/11/23 06:12:07;;;;;;;3.28;0.63;;;4.50;99.90;;;;;;5067156;28;20210;-82
2022/11/23 06:14:33;;;;;;;0.45;0.45;;;4.50;99.90;;;;;;5068338;28;20680;-82
2022/11/23 06:17:00;;;;;;;0.55;0.55;;;4.40;99.90;;;;;;5074301;28;20193;-82
2022/11/23 06:19:28;;;;;;;0.93;0.75;;;4.60;99.90;;;;;;5072407;28;20273;-81
2022/11/23 06:21:56;;;;;;;0.30;0.20;;;4.50;99.90;;;;;;5081593;28;20270;-82
2022/11/23 06:24:22;;;;;;;0.30;0.25;;;4.50;99.90;;;;;;5075586;28;20214;-80
2022/11/23 06:26:51;;;;;;;0.30;0.30;;;4.40;99.90;;;;;;5087565;28;20240;-81
2022/11/23 06:29:18;;;;;;;0.60;0.60;;;4.40;99.90;;;;;;5087402;28;20271;-81
2022/11/23 06:31:45;;;;;;;0.73;0.50;;;4.40;99.90;;;;;;5087083;28;20243;-81
2022/11/23 06:34:11;;;;;;;2.67;1.27;;;4.40;99.90;;;;;;5087334;28;20221;-81
2022/11/23 06:36:38;;;;;;;0.82;0.73;;;5.50;99.90;;;;;;5086549;28;20291;-81
2022/11/23 06:39:05;;;;;;;0.57;0.57;;;4.30;99.90;;;;;;5087683;28;20234;-81
2022/11/23 06:41:32;;;;;;;0.60;0.60;;;4.30;99.90;;;;;;5072909;28;20219;-81
2022/11/23 06:44:00;;;;;;;0.70;0.70;;;4.30;99.90;;;;;;5067237;28;20195;-81
2022/11/23 06:46:27;;;;;;;0.40;0.40;;;4.30;99.90;;;;;;5067871;28;20914;-82
2022/11/23 06:48:54;;;;;;;1.73;0.90;;;4.30;99.90;;;;;;5086774;28;20790;-82
2022/11/23 06:51:25;;;;;;;2.30;0.82;;;4.50;99.90;;;;;;5063802;28;20207;-82
2022/11/23 06:53:52;;;;;;;0.50;0.50;;;4.40;99.90;;;;;;5078484;28;20608;-81
2022/11/23 06:56:19;;;;;;;0.30;0.25;;;4.20;99.90;;;;;;5074494;28;20204;-80
2022/11/23 06:58:46;;;;;;;0.77;0.75;;;4.20;99.90;;;;;;5067907;28;20450;-80
2022/11/23 07:01:14;;;;;;;0.68;0.68;;;4.10;99.90;;;;;;5071642;28;20278;-79
2022/11/23 07:03:41;;;;;;;1.25;1.05;;;4.20;99.90;;;;;;5070334;28;20251;-80
2022/11/23 07:06:09;;;;;;;3.08;1.15;;;4.20;99.90;;;;;;5073240;28;21067;-79
2022/11/23 07:08:38;;;;;;;5.85;1.23;;;4.20;99.90;;;;;;5087159;28;20203;-80
2022/11/23 07:11:06;;;;;;;1.27;1.10;;;4.00;99.90;;;;;;5087615;28;20195;-79
2022/11/23 07:13:33;;;;;;;5.55;1.42;;;4.00;99.90;;;;;;5077930;28;20202;-79
2022/11/23 07:16:00;;;;;;;1.55;1.45;;;4.10;99.90;;;;;;5079035;28;20290;-79
2022/11/23 07:18:28;;;;;;;2.55;0.75;;;4.20;99.90;;;;;;5077050;28;20286;-80
2022/11/23 07:20:57;;;;;;;0.30;0.22;;;4.30;99.90;;;;;;5070259;28;20308;-80
2022/11/23 07:23:24;;;;;;;4.88;2.20;;;4.20;99.90;;;;;;5073604;28;20273;-82
2022/11/23 07:25:51;;;;;;;0.70;0.45;;;4.10;99.90;;;;;;5085248;28;20725;-83
2022/11/23 07:28:19;;;;;;;1.20;0.57;;;4.20;99.90;;;;;;5083920;28;20619;-83
2022/11/23 07:30:56;;;;;;;0.40;0.40;;;4.20;99.90;;;;;;5079899;28;20310;-83
2022/11/23 07:33:22;;;;;;;0.77;0.68;;;4.30;99.90;;;;;;5078099;28;20654;-80
2022/11/23 07:35:51;;;;;;;0.40;0.40;;;4.30;99.90;;;;;;5075740;28;20282;-80
2022/11/23 07:38:18;;;;;;;2.75;0.98;;;4.30;99.90;;;;;;5076593;28;20195;-79
2022/11/23 07:40:44;;;;;;;0.55;0.55;;;4.40;99.90;;;;;;5077430;28;20702;-80
2022/11/23 07:43:11;;;;;;;0.95;0.50;;;4.40;99.90;;;;;;5078366;28;20559;-80
2022/11/23 07:45:38;;;;;;;0.30;0.20;;;4.50;99.90;;;;;;5078706;28;20186;-78
2022/11/23 07:48:07;;;;;;;0.40;0.40;;;4.40;99.90;;;;;;5080796;28;20201;-80
2022/11/23 07:50:35;;;;;;;1.45;0.88;;;4.50;99.90;;;;;;5072980;28;20200;-80
2022/11/23 07:53:04;;;;;;;0.77;0.77;;;4.60;99.90;;;;;;5089083;28;20201;-80
2022/11/23 07:55:32;;;;;;;0.82;0.70;;;4.70;99.90;;;;;;5089427;28;20603;-79
2022/11/23 07:57:59;;;;;;;0.55;0.50;;;4.60;99.90;;;;;;5078672;28;20203;-80
2022/11/23 08:00:28;;;;;;;9.38;2.28;;;4.80;99.90;;;;;;5083449;28;20230;-79
2022/11/23 08:02:54;;;;;;;2.22;2.03;;;4.80;99.90;;;;;;5085049;28;20199;-78
2022/11/23 08:05:21;;;;;;;1.85;1.30;;;4.80;99.90;;;;;;5088355;28;20187;-79
2022/11/23 08:07:48;;;;;;;1.48;0.63;;;4.80;99.90;;;;;;5086705;28;20203;-79
2022/11/23 08:10:16;;;;;;;1.27;1.17;;;4.90;99.90;;;;;;5084474;28;20192;-80
2022/11/23 08:12:43;;;;;;;3.50;1.20;;;4.90;99.90;;;;;;5079524;28;20183;-79
2022/11/23 08:15:11;;;;;;;1.15;1.00;;;5.00;99.90;;;;;;5079534;28;20282;-79
2022/11/23 08:17:54;;;;;;;0.90;0.88;;;5.00;99.90;;;;;;5073856;28;20274;-83
2022/11/23 08:20:21;;;;;;;0.50;0.43;;;5.20;99.90;;;;;;5076604;28;20244;-82
2022/11/23 08:22:48;;;;;;;0.93;0.80;;;5.20;99.90;;;;;;5076154;28;20301;-81
2022/11/23 08:25:16;;;;;;;0.73;0.60;;;5.20;99.90;;;;;;5074138;28;20666;-82
2022/11/23 08:27:43;;;;;;;3.40;1.27;;;5.50;99.90;;;;;;5074319;28;20754;-81
2022/11/23 08:30:11;;;;;;;2.28;1.15;;;5.30;99.90;;;;;;5078798;28;20720;-81
2022/11/23 08:32:38;;;;;;;4.72;2.00;;;5.30;99.90;;;;;;5078191;28;20673;-81
2022/11/23 08:35:08;;;;;;;1.95;1.05;;;5.30;99.90;;;;;;5078891;28;20836;-81
2022/11/23 08:38:16;;;;;;;2.47;1.33;;;5.50;99.90;;;;;;5077421;28;20278;-83
2022/11/23 08:40:44;;;;;;;1.45;0.75;;;5.60;99.90;;;;;;5076177;28;20305;-79
2022/11/23 08:43:11;;;;;;;4.25;0.80;;;5.60;99.90;;;;;;5077241;28;20201;-79
2022/11/23 08:45:38;;;;;;;1.80;1.05;;;5.80;99.90;;;;;;5075393;28;20615;-80
2022/11/23 08:48:06;;;;;;;0.65;0.40;;;5.80;99.90;;;;;;5076224;28;20286;-81
2022/11/23 08:50:34;;;;;;;0.60;0.60;;;5.80;99.90;;;;;;5077661;28;20306;-79
2022/11/23 08:53:01;;;;;;;0.80;0.80;;;5.90;99.90;;;;;;5078601;28;20567;-79
2022/11/23 08:55:28;;;;;;;0.82;0.60;;;5.80;99.90;;;;;;5077587;28;20199;-79
2022/11/23 08:57:57;;;;;;;0.73;0.73;;;6.00;99.90;;;;;;5077318;28;20541;-81
2022/11/23 09:00:24;;;;;;;0.68;0.68;;;5.90;99.90;;;;;;5074430;28;20215;-83
2022/11/23 09:02:51;;;;;;;2.03;1.23;;;6.00;99.90;;;;;;5075823;28;20209;-81
2022/11/23 09:05:18;;;;;;;1.10;1.10;;;5.90;99.90;;;;;;5077073;28;20290;-80
2022/11/23 09:07:45;;;;;;;1.40;0.82;;;6.10;99.90;;;;;;5079322;28;20198;-81
2022/11/23 09:10:12;;;;;;;0.50;0.50;;;6.20;99.90;;;;;;5078543;28;20203;-80
2022/11/23 09:12:38;;;;;;;1.35;0.82;;;6.30;99.90;;;;;;5076654;28;20745;-82
2022/11/23 09:15:08;;;;;;;0.82;0.50;;;6.80;99.90;;;;;;5075599;28;20194;-82
2022/11/23 09:17:35;;;;;;;0.75;0.75;;;6.30;99.90;;;;;;5078342;28;20205;-81
2022/11/23 09:20:02;;;;;;;0.85;0.85;;;6.30;99.90;;;;;;5077500;28;20220;-81
2022/11/23 09:22:29;;;;;;;0.80;0.75;;;6.40;99.90;;;;;;5077301;28;20195;-83
2022/11/23 09:24:56;;;;;;;1.70;1.15;;;6.30;99.90;;;;;;5076426;28;20206;-83
2022/11/23 09:27:23;;;;;;;0.30;0.20;;;6.70;99.90;;;;;;5074340;28;20279;-84
2022/11/23 09:29:53;;;;;;;0.45;0.45;;;6.60;99.70;;;;;;5074419;28;20291;-83
2022/11/23 09:32:21;;;;;;;0.70;0.68;;;6.70;99.10;;;;;;5078227;28;20209;-82
2022/11/23 09:34:49;;;;;;;0.73;0.73;;;6.70;99.90;;;;;;5078111;28;20203;-84
2022/11/23 09:37:16;;;;;;;0.70;0.65;;;6.60;99.60;;;;;;5078355;28;20680;-82
2022/11/23 09:39:43;;;;;;;0.60;0.55;;;6.50;98.80;;;;;;5079429;28;20290;-82
2022/11/23 09:42:21;;;;;;;0.40;0.30;;;6.40;99.70;;;;;;5074410;28;20197;-82
2022/11/23 09:45:08;;;;;;;11.73;0.85;;;6.50;99.00;;;;;;5067829;28;20191;-82
2022/11/23 09:47:54;;;;;;;0.85;0.50;;;6.60;99.00;;;;;;5076970;28;20198;-82
2022/11/23 09:50:27;;;;;;;0.30;0.20;;;6.60;98.40;;;;;;5077138;28;20202;-82
2022/11/23 09:52:54;;;;;;;2.60;0.60;;;6.80;98.40;;;;;;5078363;28;20748;-83
2022/11/23 09:55:37;;;;;;;0.50;0.30;;;6.80;98.60;;;;;;5077752;28;20215;-83
2022/11/23 09:58:18;;;;;;;0.30;0.28;;;6.90;98.20;;;;;;5075484;28;20251;-84
2022/11/23 10:00:54;;;;;;;0.40;0.40;;;7.00;98.10;;;;;;5076951;28;20222;-84
2022/11/23 10:03:22;;;;;;;0.35;0.30;;;7.00;97.70;;;;;;5075246;28;20298;-82
2022/11/23 10:06:02;;;;;;;0.60;0.60;;;6.90;98.00;;;;;;5082460;28;20218;-84
2022/11/23 10:08:38;;;;;;;0.50;0.40;;;5.80;97.80;;;;;;5076813;28;20199;-82
2022/11/23 10:11:30;;;;;;;0.30;0.30;;;6.90;98.90;;;;;;5075587;28;20229;-83
2022/11/23 10:14:15;;;;;;;0.30;0.20;;;6.90;98.40;;;;;;5084088;28;20684;-82
2022/11/23 10:17:39;;;;;;;0.40;0.30;;;6.90;98.50;;;;;;5079979;28;20643;-84
2022/11/23 10:20:34;;;;;;;0.50;0.45;;;6.90;98.50;;;;;;5067576;28;20226;-84
2022/11/23 10:23:02;;;;;;;0.80;0.20;;;7.00;98.10;;;;;;5076633;28;20273;-83
2022/11/23 10:25:34;;;;;;;1.02;0.93;;;7.10;97.90;;;;;;5078530;28;20191;-83
2022/11/23 10:28:06;;;;;;;0.50;0.40;;;7.20;98.30;;;;;;5075076;28;20199;-81
2022/11/23 10:30:34;;;;;;;1.63;0.98;;;7.10;97.80;;;;;;5075280;28;20202;-82
2022/11/23 10:33:05;;;;;;;0.60;0.60;;;7.00;97.80;;;;;;5074851;28;20732;-82
2022/11/23 10:35:37;;;;;;;0.40;0.40;;;7.10;97.10;;;;;;5076563;28;20714;-82
2022/11/23 10:38:11;;;;;;;0.30;0.30;;;7.30;96.80;;;;;;5077869;28;20196;-82
2022/11/23 10:40:40;;;;;;;2.30;0.65;;;7.30;97.80;;;;;;5078429;28;20303;-82
2022/11/23 10:43:14;;;;;;;2.97;0.80;;;7.40;97.00;;;;;;5084666;28;20301;-81
2022/11/23 10:45:41;;;;;;;1.33;0.50;;;7.50;96.40;;;;;;5081709;28;20199;-82
2022/11/23 10:48:09;;;;;;;0.95;0.60;;;7.60;96.30;;;;;;5080780;28;20205;-83
2022/11/23 10:50:39;;;;;;;0.50;0.50;;;7.50;95.90;;;;;;5081761;28;20311;-82
2022/11/23 10:53:21;;;;;;;0.63;0.50;;;7.50;96.30;;;;;;5088398;28;20222;-82
2022/11/23 10:55:51;;;;;;;1.02;0.68;;;7.50;96.60;;;;;;5087913;28;20203;-81
2022/11/23 10:58:26;;;;;;;0.67;0.67;;;7.50;96.70;;;;;;5085644;28;20218;-82
2022/11/23 11:00:59;;;;;;;0.63;0.63;;;7.70;96.70;;;;;;5085548;28;20770;-82
2022/11/23 11:03:26;;;;;;;0.50;0.27;;;7.60;96.30;;;;;;5078368;28;20613;-82
2022/11/23 11:05:58;;;;;;;0.40;0.40;;;7.60;96.50;;;;;;5083393;28;20736;-82
2022/11/23 11:08:29;;;;;;;0.57;0.50;;;7.70;95.90;;;;;;5071322;28;20709;-82
2022/11/23 11:11:01;;;;;;;0.80;0.80;;;7.70;95.50;;;;;;5089095;28;20624;-82
2022/11/23 11:13:31;;;;;;;0.50;0.40;;;7.70;96.20;;;;;;5090347;28;20664;-82
2022/11/23 11:16:00;;;;;;;0.73;0.40;;;7.60;96.00;;;;;;5070885;28;20619;-82
2022/11/23 11:18:33;;;;;;;3.23;1.23;;;7.60;96.30;;;;;;5090519;28;20622;-83
2022/11/23 11:21:04;;;;;;;1.33;1.07;;;7.70;96.00;;;;;;5087691;28;20710;-82
2022/11/23 11:23:32;;;;;;;0.50;0.40;;;8.00;95.40;;;;;;5090188;28;20707;-82
2022/11/23 11:26:16;;;;;;;1.52;0.60;;;8.00;94.90;;;;;;5084562;28;20644;-82
2022/11/23 11:28:47;;;;;;;0.50;0.40;;;8.00;94.90;;;;;;5075370;28;20207;-82
2022/11/23 11:31:37;;;;;;;0.80;0.80;;;7.90;95.10;;;;;;5069968;28;21013;-82
2022/11/23 11:34:14;;;;;;;0.50;0.30;;;7.90;94.90;;;;;;5076320;28;20723;-83
2022/11/23 11:36:48;;;;;;;0.93;0.77;;;8.00;94.60;;;;;;5089159;28;21238;-82
2022/11/23 11:39:22;;;;;;;2.93;0.87;;;8.00;94.50;;;;;;5077672;28;20571;-83
2022/11/23 11:41:52;;;;;;;1.60;0.70;;;8.00;94.20;;;;;;5082616;28;20767;-82
2022/11/23 11:44:22;;;;;;;0.53;0.47;;;8.00;94.40;;;;;;5070032;28;20667;-82
2022/11/23 11:46:56;;;;;;;3.43;1.03;;;8.00;94.80;;;;;;5069822;28;20625;-81
2022/11/23 11:49:28;;;;;;;2.33;1.40;;;8.00;93.90;;;;;;5080029;28;20949;-82
2022/11/23 11:52:05;;;;;;;1.13;1.03;;;8.10;94.40;;;;;;5082675;28;20659;-82
2022/11/23 11:54:41;;;;;;;0.50;0.30;;;8.20;93.20;;;;;;5090045;28;20612;-82
2022/11/23 11:57:15;;;;;;;1.20;1.10;;;8.20;93.00;;;;;;5083882;28;20624;-83
2022/11/23 11:59:45;;;;;;;0.60;0.60;;;8.30;92.80;;;;;;5085018;28;20631;-82
2022/11/23 12:02:20;;;;;;;1.63;0.80;;;8.30;92.70;;;;;;5077151;28;20760;-81
2022/11/23 12:04:54;;;;;;;0.80;0.80;;;8.30;92.70;;;;;;5078285;28;20274;-83
2022/11/23 12:07:29;;;;;;;1.07;0.83;;;8.30;93.30;;;;;;5076308;28;20663;-85
2022/11/23 12:10:24;;;;;;;1.27;1.17;;;8.20;93.40;;;;;;5076586;28;20627;-85
2022/11/23 12:13:00;;;;;;;0.97;0.83;;;8.20;93.90;;;;;;5082135;28;21211;-83
2022/11/23 12:15:33;;;;;;;0.40;0.40;;;8.40;92.70;;;;;;5088610;28;20723;-83
2022/11/23 12:18:45;;;;;;;0.57;0.57;;;8.30;93.60;;;;;;5080986;28;20667;-82
2022/11/23 12:21:36;;;;;;;0.83;0.50;;;8.30;92.70;;;;;;5078908;28;20687;-82
2022/11/23 12:24:15;;;;;;;0.33;0.33;;;8.50;92.80;;;;;;5078714;28;20636;-82
2022/11/23 12:26:51;;;;;;;0.80;0.73;;;8.60;92.70;;;;;;5077003;28;21322;-82
2022/11/23 12:29:36;;;;;;;0.70;0.70;;;9.20;93.00;;;;;;5084933;28;20681;-82
2022/11/23 12:32:12;;;;;;;0.40;0.30;;;8.30;92.50;;;;;;5079983;28;20720;-82
2022/11/23 12:35:04;;;;;;;0.43;0.40;;;8.40;92.20;;;;;;5079116;28;20727;-82
2022/11/23 12:37:40;;;;;;;0.40;0.40;;;8.50;92.10;;;;;;5085861;28;20631;-82
2022/11/23 12:40:23;;;;;;;0.50;0.40;;;8.40;91.70;;;;;;5075001;28;20609;-80
2022/11/23 12:42:54;;;;;;;0.70;0.70;;;8.40;91.90;;;;;;5076232;28;20827;-80
2022/11/23 12:45:32;;;;;;;0.70;0.40;;;8.40;91.60;;;;;;5079181;28;20625;-80
2022/11/23 12:48:14;;;;;;;0.30;0.20;;;8.30;91.90;;;;;;5077511;28;20653;-80
2022/11/23 12:50:47;;;;;;;0.50;0.30;;;8.30;92.20;;;;;;5079838;28;20629;-79
2022/11/23 12:53:33;;;;;;;0.40;0.30;;;8.40;92.40;;;;;;5083268;28;20625;-81
2022/11/23 12:56:09;;;;;;;1.53;0.30;;;8.40;92.30;;;;;;5069256;28;20621;-79
2022/11/23 12:58:39;;;;;;;0.50;0.20;;;8.50;91.80;;;;;;5070732;28;21260;-81
2022/11/23 13:01:12;;;;;;;0.30;0.20;;;8.50;91.00;;;;;;5086189;28;21126;-81
2022/11/23 13:04:15;;;;;;;0.45;0.40;;;8.50;90.90;;;;;;5085740;28;21015;-80
2022/11/23 13:07:32;;;;;;;0.87;0.57;;;8.60;91.00;;;;;;5062664;28;20207;-80
2022/11/23 13:10:21;;;;;;;0.30;0.20;;;8.60;90.50;;;;;;5019706;28;21213;-80
2022/11/23 13:13:23;;;;;;;0.40;0.30;;;8.60;90.90;;;;;;5025983;28;20639;-80
2022/11/23 13:16:08;;;;;;;0.93;0.30;;;8.60;91.00;;;;;;5068279;28;20697;-79